Time;durP1;ratioP1;P1;durP2;ratioP2;P2;SDS_P1;SDS_P2;PMS_P1;PMS_P2;Temp;Humidity;BMP_temperature;BMP_pressure;BME280_temperature;BME280_humidity;BME280_pressure;Samples;Min_cycle;Max_cycle;Signal;HPM_P1;HPM_P2
2022/11/28 00:01:26;;;;;;;71.55;39.23;;;;;;;3.99;81.39;102346.19;1699817;83;21482;-82
2022/11/28 00:03:53;;;;;;;73.50;41.08;;;;;;;4.04;81.34;102347.45;1700163;83;21066;-82
2022/11/28 00:06:20;;;;;;;75.10;41.92;;;;;;;4.07;81.36;102347.30;1704613;83;21943;-80
2022/11/28 00:08:46;;;;;;;86.63;43.73;;;;;;;4.11;81.41;102353.66;1709672;82;21130;-87
2022/11/28 00:11:14;;;;;;;77.78;42.10;;;;;;;4.16;81.37;102357.50;1707462;83;21736;-86
2022/11/28 00:13:41;;;;;;;76.50;42.33;;;;;;;4.18;81.27;102354.61;1681954;82;21094;-86
2022/11/28 00:16:10;;;;;;;77.72;41.95;;;;;;;4.18;81.29;102350.70;1708236;82;21548;-86
2022/11/28 00:18:36;;;;;;;75.75;40.35;;;;;;;4.22;81.39;102343.66;1703718;83;21549;-86
2022/11/28 00:21:07;;;;;;;72.05;39.05;;;;;;;4.23;81.28;102341.95;1702194;83;20980;-86
2022/11/28 00:23:34;;;;;;;76.57;39.38;;;;;;;4.23;81.19;102347.16;1701724;83;22843;-86
2022/11/28 00:26:04;;;;;;;74.75;38.83;;;;;;;4.16;81.20;102347.48;1701645;83;21092;-86
2022/11/28 00:28:31;;;;;;;65.72;37.40;;;;;;;4.17;81.28;102349.31;1702959;83;21126;-85
2022/11/28 00:30:58;;;;;;;69.82;39.13;;;;;;;4.14;81.12;102344.75;1698161;83;21072;-86
2022/11/28 00:33:24;;;;;;;68.07;38.02;;;;;;;4.06;81.07;102343.27;1699587;83;21332;-81
2022/11/28 00:35:53;;;;;;;64.47;37.30;;;;;;;4.04;81.22;102347.45;1696176;83;21763;-86
2022/11/28 00:38:20;;;;;;;67.42;37.83;;;;;;;4.04;81.30;102340.53;1680272;83;21086;-86
2022/11/28 00:40:46;;;;;;;68.40;38.00;;;;;;;4.05;81.32;102341.06;1700385;83;21076;-86
2022/11/28 00:43:13;;;;;;;62.33;35.60;;;;;;;4.05;81.34;102340.13;1699232;83;21612;-86
2022/11/28 00:45:40;;;;;;;58.25;35.08;;;;;;;4.02;81.29;102343.42;1696980;83;21192;-81
2022/11/28 00:48:07;;;;;;;65.67;35.23;;;;;;;3.99;81.26;102343.58;1697910;83;21777;-81
2022/11/28 00:50:34;;;;;;;69.80;36.90;;;;;;;3.99;81.39;102342.27;1695674;82;21681;-81
2022/11/28 00:53:01;;;;;;;58.42;34.10;;;;;;;4.00;81.45;102346.30;1696432;83;21870;-86
2022/11/28 00:55:27;;;;;;;59.05;35.00;;;;;;;4.04;81.43;102348.76;1690495;83;21081;-82
2022/11/28 00:57:54;;;;;;;56.75;33.42;;;;;;;4.00;81.31;102342.40;1696513;83;21057;-81
2022/11/28 01:00:21;;;;;;;60.60;34.10;;;;;;;3.98;81.32;102341.38;1698392;84;21767;-86
2022/11/28 01:02:48;;;;;;;57.40;33.48;;;;;;;4.01;81.39;102340.28;1697787;84;21041;-87
2022/11/28 01:05:15;;;;;;;56.80;32.48;;;;;;;4.02;81.45;102340.81;1698252;84;21056;-82
2022/11/28 01:07:42;;;;;;;58.50;32.67;;;;;;;4.05;81.51;102342.37;1696031;83;21163;-82
2022/11/28 01:10:10;;;;;;;61.28;32.80;;;;;;;4.07;81.48;102335.58;1695782;83;21542;-83
2022/11/28 01:12:38;;;;;;;50.67;30.50;;;;;;;4.07;81.36;102339.48;1690336;84;22907;-83
2022/11/28 01:15:06;;;;;;;54.13;32.28;;;;;;;4.03;81.23;102333.89;1697416;84;21033;-88
2022/11/28 01:17:33;;;;;;;53.70;31.40;;;;;;;3.99;81.30;102327.54;1697588;83;21309;-87
2022/11/28 01:20:00;;;;;;;52.35;32.55;;;;;;;3.96;81.24;102327.33;1696591;83;21684;-87
2022/11/28 01:22:27;;;;;;;60.95;32.10;;;;;;;3.96;81.36;102322.12;1695944;83;21130;-82
2022/11/28 01:24:53;;;;;;;45.67;29.27;;;;;;;3.99;81.40;102322.73;1687672;83;21740;-87
2022/11/28 01:27:20;;;;;;;47.58;29.42;;;;;;;3.95;81.25;102324.19;1695052;84;21073;-87
2022/11/28 01:29:47;;;;;;;48.40;29.42;;;;;;;3.95;81.32;102318.98;1696188;83;21077;-87
2022/11/28 01:32:14;;;;;;;45.45;28.75;;;;;;;3.98;81.39;102309.18;1696979;83;21383;-82
2022/11/28 01:34:41;;;;;;;50.33;30.25;;;;;;;4.01;81.43;102307.72;1694291;83;21060;-81
2022/11/28 01:37:08;;;;;;;48.55;30.25;;;;;;;3.97;81.27;102306.98;1695151;83;21699;-81
2022/11/28 01:39:34;;;;;;;53.65;31.05;;;;;;;3.96;81.32;102306.48;1692952;83;21085;-81
2022/11/28 01:42:01;;;;;;;48.80;28.92;;;;;;;3.96;81.42;102292.16;1696275;84;21701;-86
2022/11/28 01:44:33;;;;;;;48.73;29.87;;;;;;;4.00;81.42;102298.11;1696761;83;21084;-86
2022/11/28 01:47:00;;;;;;;46.00;28.17;;;;;;;4.01;81.40;102297.70;1705584;82;21099;-82
2022/11/28 01:49:34;;;;;;;44.23;28.30;;;;;;;4.03;81.46;102298.31;1704909;83;21735;-82
2022/11/28 01:52:04;;;;;;;;;;;;;;;4.04;81.40;102292.73;1695037;83;21691;-82
2022/11/28 01:54:31;;;;;;;44.63;26.73;;;;;;;4.02;81.31;102290.41;1703993;83;20864;-82
2022/11/28 01:57:03;;;;;;;42.23;26.55;;;;;;;4.03;81.39;102286.59;1693627;83;21032;-82
2022/11/28 01:59:34;;;;;;;46.73;26.80;;;;;;;4.05;81.42;102289.32;1699585;83;21103;-82
2022/11/28 02:02:03;;;;;;;42.78;26.23;;;;;;;4.08;81.41;102287.86;1689782;82;21773;-81
2022/11/28 02:04:30;;;;;;;42.50;27.02;;;;;;;4.10;81.35;102287.98;1680075;83;21171;-81
2022/11/28 02:06:57;;;;;;;42.50;26.37;;;;;;;4.07;81.15;102288.67;1695385;83;21116;-81
2022/11/28 02:09:23;;;;;;;42.53;26.93;;;;;;;3.93;81.05;102284.09;1698586;83;21517;-81
2022/11/28 02:12:17;;;;;;;46.90;27.50;;;;;;;3.89;81.13;102287.27;1703968;83;21058;-81
2022/11/28 02:15:08;;;;;;;45.63;25.73;;;;;;;3.82;81.08;102286.27;1681208;82;22429;-81
2022/11/28 02:18:17;;;;;;;40.20;25.75;;;;;;;3.74;81.05;102293.90;1699998;83;21116;-81
2022/11/28 02:21:33;;;;;;;45.00;26.30;;;;;;;3.66;81.06;102291.61;1702219;82;21119;-82
2022/11/28 02:24:14;;;;;;;40.35;25.40;;;;;;;3.62;81.20;102279.52;1698247;83;21075;-82
2022/11/28 02:27:22;;;;;;;42.33;26.87;;;;;;;3.56;81.28;102282.55;1705410;83;21016;-82
2022/11/28 02:30:04;;;;;;;40.20;26.27;;;;;;;3.57;81.51;102280.47;1699624;83;22565;-80
2022/11/28 02:32:58;;;;;;;45.75;26.65;;;;;;;3.54;81.63;102265.00;1703352;83;21899;-80
2022/11/28 02:35:39;;;;;;;46.50;27.32;;;;;;;3.62;81.71;102276.53;1704803;82;20952;-81
2022/11/28 02:38:17;;;;;;;46.42;26.50;;;;;;;3.64;81.72;102269.75;1700965;83;21110;-81
2022/11/28 02:41:11;;;;;;;44.60;24.63;;;;;;;3.70;81.86;102269.31;1705166;83;21028;-81
2022/11/28 02:44:04;;;;;;;47.13;24.77;;;;;;;3.71;81.65;102271.11;1700046;83;21706;-82
2022/11/28 02:46:56;;;;;;;36.70;24.27;;;;;;;3.66;81.64;102268.17;1696585;83;21078;-88
2022/11/28 02:49:37;;;;;;;38.70;22.70;;;;;;;3.60;81.51;102266.77;1694057;84;21071;-88
2022/11/28 02:52:08;;;;;;;41.68;22.37;;;;;;;3.61;81.63;102266.00;1695267;83;21077;-87
2022/11/28 02:54:42;;;;;;;34.53;21.87;;;;;;;3.62;81.67;102266.48;1694476;83;21672;-81
2022/11/28 02:57:09;;;;;;;37.23;21.62;;;;;;;3.62;81.63;102266.12;1692337;83;22002;-81
2022/11/28 02:59:41;;;;;;;35.38;22.07;;;;;;;3.65;81.73;102266.34;1697592;83;21040;-87
2022/11/28 03:02:29;;;;;;;34.67;22.15;;;;;;;3.67;81.69;102266.46;1696999;83;21048;-87
2022/11/28 03:05:01;;;;;;;34.80;21.55;;;;;;;3.65;81.52;102268.05;1693132;83;21072;-82
2022/11/28 03:07:38;;;;;;;38.55;22.87;;;;;;;3.62;81.54;102262.22;1691267;83;21052;-82
2022/11/28 03:10:34;;;;;;;34.53;21.95;;;;;;;3.58;81.49;102259.23;1690902;83;21756;-82
2022/11/28 03:13:32;;;;;;;34.35;21.02;;;;;;;3.55;81.57;102266.43;1696556;83;21075;-81
2022/11/28 03:16:28;;;;;;;36.50;21.48;;;;;;;3.52;81.55;102264.88;1688779;83;21135;-82
2022/11/28 03:19:09;;;;;;;36.55;21.23;;;;;;;3.50;81.59;102262.55;1697129;83;21071;-82
2022/11/28 03:21:59;;;;;;;35.58;22.52;;;;;;;3.49;81.53;102264.26;1696005;83;21111;-87
2022/11/28 03:24:43;;;;;;;34.43;20.95;;;;;;;3.48;81.67;102265.44;1692576;83;22480;-86
2022/11/28 03:27:23;;;;;;;;;;;;;;;3.43;81.56;102266.77;1693861;83;21139;-82
2022/11/28 03:29:56;;;;;;;37.45;21.33;;;;;;;3.43;81.79;102262.86;1692116;83;20989;-86
2022/11/28 03:32:27;;;;;;;35.98;21.52;;;;;;;3.43;81.81;102258.95;1698023;83;21467;-86
2022/11/28 03:35:07;;;;;;;35.85;22.25;;;;;;;3.46;82.02;102259.20;1690841;83;21115;-82
2022/11/28 03:37:38;;;;;;;33.45;21.02;;;;;;;3.50;82.05;102256.05;1692194;83;22781;-86
2022/11/28 03:40:09;;;;;;;33.50;21.90;;;;;;;3.52;82.16;102253.16;1692814;83;21053;-87
2022/11/28 03:42:41;;;;;;;33.42;21.15;;;;;;;3.58;82.22;102257.94;1693879;83;21684;-81
2022/11/28 03:45:23;;;;;;;37.42;23.67;;;;;;;3.62;82.20;102262.59;1708147;83;21033;-89
2022/11/28 03:48:01;;;;;;;32.90;20.27;;;;;;;3.66;82.21;102264.27;1707703;82;21075;-82
2022/11/28 03:50:35;;;;;;;31.95;21.45;;;;;;;3.66;81.99;102265.56;1710664;82;21954;-81
2022/11/28 03:53:16;;;;;;;33.83;21.48;;;;;;;3.63;81.93;102260.52;1703731;83;21312;-82
2022/11/28 03:56:10;;;;;;;31.65;20.72;;;;;;;3.68;81.99;102262.68;1717816;82;21069;-87
2022/11/28 03:58:58;;;;;;;34.75;18.62;;;;;;;3.68;81.91;102266.98;1646589;83;21130;-87
2022/11/28 04:01:49;;;;;;;28.62;18.27;;;;;;;3.69;81.78;102270.98;1710747;82;21095;-87
2022/11/28 04:04:54;;;;;;;34.18;18.67;;;;;;;3.61;81.46;102270.80;1705185;83;21734;-87
2022/11/28 04:07:31;;;;;;;30.20;18.05;;;;;;;3.50;81.41;102263.45;1711817;82;21079;-87
2022/11/28 04:10:21;;;;;;;28.05;18.65;;;;;;;3.45;81.64;102263.88;1711942;82;21049;-87
2022/11/28 04:12:59;;;;;;;30.97;19.00;;;;;;;3.45;81.78;102266.48;1712058;82;21629;-81
2022/11/28 04:15:40;;;;;;;27.93;18.07;;;;;;;3.47;81.75;102270.11;1676944;84;21066;-82
2022/11/28 04:18:13;;;;;;;30.60;19.60;;;;;;;3.46;81.80;102266.61;1697913;82;21749;-87
2022/11/28 04:20:47;;;;;;;30.75;20.08;;;;;;;3.50;81.88;102262.55;1711438;82;21114;-86
2022/11/28 04:23:15;;;;;;;33.45;21.33;;;;;;;3.50;81.84;102260.84;1688887;82;20981;-80
2022/11/28 04:25:56;;;;;;;31.80;20.17;;;;;;;3.50;81.85;102252.14;1710507;82;21033;-80
2022/11/28 04:28:24;;;;;;;36.48;19.67;;;;;;;3.52;81.85;102257.47;1712287;82;21487;-80
2022/11/28 04:30:51;;;;;;;36.23;21.85;;;;;;;3.50;81.76;102260.84;1701405;83;21703;-81
2022/11/28 04:33:20;;;;;;;36.35;21.33;;;;;;;3.54;81.91;102256.79;1710902;82;21444;-80
2022/11/28 04:35:49;;;;;;;34.25;20.23;;;;;;;3.57;81.85;102258.34;1710429;83;21387;-86
2022/11/28 04:38:15;;;;;;;34.13;20.90;;;;;;;3.59;81.89;102254.56;1711445;83;21049;-87
2022/11/28 04:40:47;;;;;;;40.45;21.93;;;;;;;3.58;81.81;102247.12;1704331;83;20980;-81
2022/11/28 04:43:19;;;;;;;36.98;22.02;;;;;;;3.59;81.70;102253.26;1707380;82;22627;-81
2022/11/28 04:45:52;;;;;;;42.10;21.40;;;;;;;3.56;81.66;102256.91;1711146;82;21021;-80
2022/11/28 04:48:19;;;;;;;38.28;21.30;;;;;;;3.51;81.62;102250.06;1708883;82;21001;-87
2022/11/28 04:51:02;;;;;;;46.60;22.77;;;;;;;3.51;81.73;102250.06;1720515;82;21036;-87
2022/11/28 04:53:53;;;;;;;37.03;21.27;;;;;;;3.53;81.86;102256.66;1709126;83;20992;-86
2022/11/28 04:56:25;;;;;;;46.20;22.05;;;;;;;3.56;81.89;102258.22;1699500;82;21290;-86
2022/11/28 04:58:52;;;;;;;47.58;23.67;;;;;;;3.55;81.80;102257.31;1712230;82;21076;-86
2022/11/28 05:01:28;;;;;;;40.67;23.05;;;;;;;3.53;81.84;102248.48;1714705;82;21480;-86
2022/11/28 05:03:55;;;;;;;45.08;24.43;;;;;;;3.54;81.85;102253.28;1711430;82;21518;-84
2022/11/28 05:06:29;;;;;;;45.98;24.27;;;;;;;3.50;81.89;102255.64;1699679;83;21446;-83
2022/11/28 05:08:56;;;;;;;42.00;24.23;;;;;;;3.54;82.01;102256.79;1708410;82;22450;-86
2022/11/28 05:11:22;;;;;;;47.98;26.52;;;;;;;3.56;81.99;102251.70;1710073;82;21076;-87
2022/11/28 05:13:49;;;;;;;44.73;24.70;;;;;;;3.57;82.00;102247.03;1710582;82;21076;-85
2022/11/28 05:16:16;;;;;;;48.05;23.83;;;;;;;3.61;82.03;102253.87;1705593;81;21528;-81
2022/11/28 05:18:43;;;;;;;43.33;25.10;;;;;;;3.64;82.07;102251.89;1711619;82;21098;-86
2022/11/28 05:21:10;;;;;;;44.03;23.12;;;;;;;3.65;81.95;102247.21;1717123;82;21661;-86
2022/11/28 05:23:39;;;;;;;54.80;28.27;;;;;;;3.65;81.90;102250.72;1692337;84;21043;-86
2022/11/28 05:26:08;;;;;;;53.52;27.85;;;;;;;3.66;81.91;102253.84;1705106;83;21048;-84
2022/11/28 05:28:34;;;;;;;55.17;29.37;;;;;;;3.67;81.92;102257.34;1708839;82;21059;-81
2022/11/28 05:31:01;;;;;;;51.88;26.70;;;;;;;3.68;81.90;102250.96;1711954;82;21148;-83
2022/11/28 05:33:29;;;;;;;46.92;25.55;;;;;;;3.69;81.92;102250.56;1691628;82;21697;-84
2022/11/28 05:36:04;;;;;;;46.33;24.98;;;;;;;3.64;81.77;102251.52;1708916;82;22093;-84
2022/11/28 05:38:32;;;;;;;46.10;26.42;;;;;;;3.62;81.86;102249.20;1707305;83;21112;-84
2022/11/28 05:41:01;;;;;;;46.73;24.23;;;;;;;3.65;81.93;102253.72;1692980;82;21126;-84
2022/11/28 05:43:28;;;;;;;40.33;22.85;;;;;;;3.61;81.71;102249.97;1718189;82;21663;-82
2022/11/28 05:45:54;;;;;;;42.45;24.27;;;;;;;3.45;81.66;102232.27;1706668;82;21797;-82
2022/11/28 05:48:22;;;;;;;43.70;24.43;;;;;;;3.49;81.66;102247.70;1706869;82;21063;-84
2022/11/28 05:50:53;;;;;;;41.95;24.32;;;;;;;3.50;81.81;102252.14;1703080;82;21072;-84
2022/11/28 05:53:18;;;;;;;43.17;24.92;;;;;;;3.44;81.76;102243.45;1705403;82;21056;-83
2022/11/28 05:55:45;;;;;;;40.90;23.25;;;;;;;3.46;81.99;102244.89;1708390;82;21518;-84
2022/11/28 05:58:12;;;;;;;45.00;26.07;;;;;;;3.47;82.02;102245.38;1714128;82;21954;-84
2022/11/28 06:00:38;;;;;;;41.30;23.60;;;;;;;3.46;82.02;102247.09;1704372;82;21071;-84
2022/11/28 06:03:06;;;;;;;43.30;24.60;;;;;;;3.50;82.09;102249.53;1703656;82;21140;-84
2022/11/28 06:05:33;;;;;;;46.40;26.37;;;;;;;3.50;82.04;102242.63;1704483;83;21100;-88
2022/11/28 06:08:00;;;;;;;48.05;25.68;;;;;;;3.55;82.18;102245.60;1706531;82;21095;-87
2022/11/28 06:10:28;;;;;;;43.33;24.05;;;;;;;3.57;82.15;102238.81;1704678;82;21754;-83
2022/11/28 06:12:55;;;;;;;37.80;22.60;;;;;;;3.57;82.09;102232.70;1708252;82;21246;-84
2022/11/28 06:15:22;;;;;;;43.42;24.32;;;;;;;3.59;82.10;102228.12;1703150;82;21346;-85
2022/11/28 06:17:49;;;;;;;43.35;23.98;;;;;;;3.61;82.03;102221.73;1710021;82;21081;-86
2022/11/28 06:20:18;;;;;;;41.37;24.02;;;;;;;3.63;82.04;102226.66;1708611;82;21135;-87
2022/11/28 06:22:46;;;;;;;44.48;23.83;;;;;;;3.55;81.71;102222.17;1705399;82;22879;-88
2022/11/28 06:25:14;;;;;;;41.23;23.55;;;;;;;3.50;81.66;102228.30;1720075;82;21412;-87
2022/11/28 06:27:41;;;;;;;38.45;22.42;;;;;;;3.48;81.77;102227.28;1707159;83;21655;-85
2022/11/28 06:30:08;;;;;;;37.73;22.98;;;;;;;3.53;81.96;102235.84;1712991;82;21075;-87
2022/11/28 06:32:35;;;;;;;40.52;22.82;;;;;;;3.54;81.82;102233.77;1704155;82;21067;-86
2022/11/28 06:35:02;;;;;;;40.83;23.30;;;;;;;3.53;81.82;102231.56;1707511;83;21850;-85
2022/11/28 06:37:30;;;;;;;37.20;21.40;;;;;;;3.55;81.77;102239.09;1705935;82;21374;-85
2022/11/28 06:39:58;;;;;;;40.12;21.95;;;;;;;3.49;81.54;102235.62;1713006;82;21563;-84
2022/11/28 06:42:29;;;;;;;39.00;23.05;;;;;;;3.46;81.68;102237.98;1710892;82;21119;-84
2022/11/28 06:44:57;;;;;;;40.78;22.20;;;;;;;3.52;81.85;102231.44;1708087;82;21004;-84
2022/11/28 06:47:24;;;;;;;41.02;24.37;;;;;;;3.55;81.81;102240.39;1692169;83;21860;-83
2022/11/28 06:49:51;;;;;;;42.33;24.87;;;;;;;3.53;81.60;102232.86;1687898;83;20957;-83
2022/11/28 06:52:18;;;;;;;41.90;24.15;;;;;;;3.49;81.48;102230.41;1683468;84;21451;-84
2022/11/28 06:54:45;;;;;;;40.35;24.20;;;;;;;3.46;81.52;102234.07;1688397;83;21599;-84
2022/11/28 06:57:12;;;;;;;40.78;24.82;;;;;;;3.43;81.43;102229.02;1686796;84;21130;-83
2022/11/28 06:59:39;;;;;;;42.85;26.87;;;;;;;3.40;81.45;102230.10;1677823;83;21939;-84
2022/11/28 07:02:06;;;;;;;44.63;26.95;;;;;;;3.40;81.45;102237.91;1692784;84;21545;-83
2022/11/28 07:04:32;;;;;;;39.55;24.87;;;;;;;3.37;81.53;102228.55;1688173;83;21535;-84
2022/11/28 07:06:59;;;;;;;42.90;26.62;;;;;;;3.37;81.55;102231.16;1694711;83;21076;-82
2022/11/28 07:09:28;;;;;;;46.53;27.02;;;;;;;3.37;81.68;102232.05;1689046;83;21059;-83
2022/11/28 07:11:55;;;;;;;42.55;23.90;;;;;;;3.40;81.73;102240.11;1684973;83;21338;-83
2022/11/28 07:14:22;;;;;;;38.17;23.67;;;;;;;3.43;81.71;102239.03;1689739;83;21637;-83
2022/11/28 07:16:49;;;;;;;39.25;22.25;;;;;;;3.39;81.53;102232.17;1684238;83;21434;-83
2022/11/28 07:19:21;;;;;;;39.65;23.42;;;;;;;3.32;81.38;102239.89;1686904;84;21064;-83
2022/11/28 07:21:44;;;;;;;43.70;23.22;;;;;;;3.29;81.56;102236.66;1686645;83;21067;-83
2022/11/28 07:24:11;;;;;;;47.95;24.70;;;;;;;3.31;81.70;102240.29;1694567;84;21756;-85
2022/11/28 07:26:38;;;;;;;41.53;24.57;;;;;;;3.30;81.70;102237.56;1692380;84;21674;-83
2022/11/28 07:29:06;;;;;;;45.80;25.75;;;;;;;3.31;81.83;102232.88;1691949;84;21559;-83
2022/11/28 07:31:33;;;;;;;50.33;26.87;;;;;;;3.34;81.94;102237.04;1693799;84;21905;-83
2022/11/28 07:34:02;;;;;;;51.83;29.18;;;;;;;3.33;81.82;102231.31;1688579;83;21714;-85
2022/11/28 07:36:29;;;;;;;44.80;26.05;;;;;;;3.30;81.78;102231.98;1682659;83;22053;-85
2022/11/28 07:38:59;;;;;;;47.98;26.75;;;;;;;3.31;81.84;102231.58;1683296;84;21561;-85
2022/11/28 07:41:32;;;;;;;47.55;28.00;;;;;;;3.34;81.92;102230.91;1687245;84;21095;-85
2022/11/28 07:44:00;;;;;;;48.55;27.73;;;;;;;3.38;82.06;102236.48;1690241;84;21124;-83
2022/11/28 07:46:28;;;;;;;52.48;29.20;;;;;;;3.44;82.07;102233.05;1712535;82;21656;-83
2022/11/28 07:48:55;;;;;;;48.48;28.12;;;;;;;3.47;82.01;102234.59;1712073;82;21199;-83
2022/11/28 07:51:24;;;;;;;48.68;28.92;;;;;;;3.41;81.66;102226.69;1708578;82;21029;-85
2022/11/28 07:53:51;;;;;;;49.35;27.35;;;;;;;3.39;81.82;102230.47;1714299;82;20982;-85
2022/11/28 07:56:23;;;;;;;44.77;27.02;;;;;;;3.43;81.94;102229.02;1710414;83;21131;-85
2022/11/28 07:58:50;;;;;;;47.55;27.62;;;;;;;3.45;81.93;102228.37;1716665;82;21086;-85
2022/11/28 08:01:21;;;;;;;45.85;27.48;;;;;;;3.48;81.95;102229.88;1693071;82;21772;-85
2022/11/28 08:03:48;;;;;;;51.13;28.38;;;;;;;3.50;81.85;102223.50;1707231;83;21060;-85
2022/11/28 08:06:17;;;;;;;49.77;28.62;;;;;;;3.48;81.77;102227.69;1711607;82;21113;-83
2022/11/28 08:08:46;;;;;;;46.90;26.50;;;;;;;3.49;81.83;102217.77;1712615;82;21064;-84
2022/11/28 08:11:13;;;;;;;45.88;26.68;;;;;;;3.54;81.92;102217.73;1709012;82;21517;-83
2022/11/28 08:13:40;;;;;;;40.92;24.55;;;;;;;3.56;81.96;102222.66;1709274;83;21745;-83
2022/11/28 08:16:10;;;;;;;43.02;24.72;;;;;;;3.63;81.96;102225.36;1715937;82;20964;-83
2022/11/28 08:18:37;;;;;;;44.33;25.55;;;;;;;3.67;81.96;102228.30;1709823;83;21379;-83
2022/11/28 08:21:13;;;;;;;39.95;23.47;;;;;;;3.73;81.90;102222.66;1710150;83;21346;-83
2022/11/28 08:23:40;;;;;;;42.53;25.08;;;;;;;3.77;81.73;102225.99;1708476;83;21110;-85
2022/11/28 08:26:09;;;;;;;43.78;25.23;;;;;;;3.75;81.58;102227.58;1714235;82;22503;-83
2022/11/28 08:28:36;;;;;;;46.48;27.17;;;;;;;3.74;81.46;102222.28;1709531;83;21525;-85
2022/11/28 08:31:15;;;;;;;51.15;28.38;;;;;;;3.71;81.44;102224.23;1699807;83;21106;-83
2022/11/28 08:33:42;;;;;;;43.75;25.00;;;;;;;3.67;81.40;102227.41;1704385;83;21074;-83
2022/11/28 08:36:11;;;;;;;45.88;25.62;;;;;;;3.62;81.34;102224.46;1699303;83;21346;-83
2022/11/28 08:38:38;;;;;;;44.60;25.02;;;;;;;3.58;81.20;102229.30;1705666;82;21841;-83
2022/11/28 08:41:10;;;;;;;45.50;23.55;;;;;;;3.48;81.12;102231.19;1706446;82;22043;-85
2022/11/28 08:43:38;;;;;;;40.20;23.90;;;;;;;3.41;81.12;102228.89;1716199;82;21919;-85
2022/11/28 08:46:06;;;;;;;38.42;23.40;;;;;;;3.36;81.25;102225.42;1709814;82;21564;-83
2022/11/28 08:48:35;;;;;;;44.65;23.62;;;;;;;3.39;81.53;102227.87;1687647;83;21061;-83
2022/11/28 08:51:02;;;;;;;39.00;23.90;;;;;;;3.45;81.66;102225.77;1707635;81;22567;-83
2022/11/28 08:53:29;;;;;;;44.48;25.43;;;;;;;3.53;81.68;102217.61;1708660;82;21745;-83
2022/11/28 08:55:56;;;;;;;44.83;27.87;;;;;;;3.57;81.57;102215.78;1691996;83;21057;-83
2022/11/28 08:58:23;;;;;;;41.23;23.83;;;;;;;3.56;81.52;102214.85;1704361;82;21485;-85
2022/11/28 09:00:50;;;;;;;44.67;25.02;;;;;;;3.56;81.48;102215.26;1708509;82;21592;-85
2022/11/28 09:03:18;;;;;;;48.83;26.12;;;;;;;3.52;81.39;102214.11;1708538;82;21753;-85
2022/11/28 09:05:45;;;;;;;48.80;27.37;;;;;;;3.54;81.42;102219.44;1705040;83;21510;-85
2022/11/28 09:08:14;;;;;;;57.33;28.98;;;;;;;3.49;81.34;102212.19;1704426;82;21119;-83
2022/11/28 09:10:41;;;;;;;44.95;25.32;;;;;;;3.50;81.52;102216.59;1703498;83;21120;-83
2022/11/28 09:13:08;;;;;;;45.85;25.10;;;;;;;3.52;81.41;102218.42;1703973;83;21074;-83
2022/11/28 09:15:41;;;;;;;44.90;25.23;;;;;;;3.51;81.52;102214.92;1717774;82;21805;-85
2022/11/28 09:18:08;;;;;;;42.90;25.12;;;;;;;3.53;81.39;102216.31;1705849;83;21097;-83
2022/11/28 09:20:36;;;;;;;46.15;23.98;;;;;;;3.57;81.52;102220.99;1704827;82;22441;-83
2022/11/28 09:23:03;;;;;;;54.40;28.73;;;;;;;3.61;81.56;102216.52;1712239;82;21057;-83
2022/11/28 09:25:30;;;;;;;48.35;27.45;;;;;;;3.54;81.36;102212.53;1707475;82;21092;-83
2022/11/28 09:27:56;;;;;;;44.08;24.82;;;;;;;3.56;81.45;102210.05;1706542;82;21747;-83
2022/11/28 09:30:25;;;;;;;45.50;24.47;;;;;;;3.52;81.24;102211.91;1705881;82;21059;-85
2022/11/28 09:32:52;;;;;;;42.00;25.68;;;;;;;3.45;81.10;102215.72;1708249;82;21546;-85
2022/11/28 09:35:19;;;;;;;48.78;25.52;;;;;;;3.44;81.29;102216.53;1705675;83;21064;-85
2022/11/28 09:37:45;;;;;;;48.87;27.22;;;;;;;3.44;81.35;102214.83;1708967;82;21526;-85
2022/11/28 09:40:20;;;;;;;50.45;27.95;;;;;;;3.49;81.55;102209.95;1705533;82;21741;-85
2022/11/28 09:42:47;;;;;;;64.32;35.30;;;;;;;3.55;81.58;102206.55;1708539;82;21409;-85
2022/11/28 09:45:20;;;;;;;48.87;26.17;;;;;;;3.59;81.47;102205.09;1708505;82;21378;-85
2022/11/28 09:47:51;;;;;;;49.27;27.05;;;;;;;3.52;81.13;102207.60;1712166;82;28880;-83
2022/11/28 09:50:22;;;;;;;47.70;24.75;;;;;;;3.46;81.19;102205.84;1712405;82;21065;-83
2022/11/28 09:53:29;;;;;;;56.55;25.60;;;;;;;3.41;81.11;102198.06;1709161;82;21905;-85
2022/11/28 09:56:10;;;;;;;46.35;26.80;;;;;;;3.39;81.17;102198.34;1648843;85;21241;-83
2022/11/28 09:58:44;;;;;;;55.40;26.70;;;;;;;3.37;81.23;102197.31;1643257;86;21074;-83
2022/11/28 10:01:22;;;;;;;47.27;26.87;;;;;;;3.37;81.28;102202.52;1646606;85;21531;-83
2022/11/28 10:04:33;;;;;;;49.08;28.27;;;;;;;3.32;81.31;102200.84;1643964;86;21141;-84
2022/11/28 10:07:27;;;;;;;47.25;26.87;;;;;;;3.36;81.51;102201.99;1652985;86;21812;-85
2022/11/28 10:09:57;;;;;;;;;;;;;;;3.37;81.33;102202.12;1652923;86;21113;-84
2022/11/28 10:12:57;;;;;;;40.92;24.60;;;;;;;3.39;81.35;102200.94;1613791;87;20539;-83
2022/11/28 10:15:39;;;;;;;50.40;27.40;;;;;;;3.41;81.36;102196.76;1634699;86;21692;-83
2022/11/28 10:18:28;;;;;;;50.70;27.13;;;;;;;3.42;81.30;102194.69;1619928;87;21171;-83
2022/11/28 10:20:59;;;;;;;55.50;29.32;;;;;;;3.41;81.21;102190.25;1618819;87;21754;-85
2022/11/28 10:23:42;;;;;;;51.00;27.15;;;;;;;3.37;81.13;102190.81;1613696;88;21138;-83
2022/11/28 10:26:18;;;;;;;49.88;26.95;;;;;;;3.37;81.31;102190.41;1584739;89;21056;-83
2022/11/28 10:28:48;;;;;;;48.13;27.85;;;;;;;3.35;81.14;102187.19;1650808;85;21098;-85
2022/11/28 10:31:26;;;;;;;50.25;28.45;;;;;;;3.39;81.43;102185.33;1699226;82;21076;-84
2022/11/28 10:34:18;;;;;;;48.83;28.57;;;;;;;3.45;81.43;102184.48;1692587;83;21784;-84
2022/11/28 10:36:55;;;;;;;48.48;26.93;;;;;;;3.46;81.46;102184.61;1701997;82;21064;-85
2022/11/28 10:39:23;;;;;;;47.23;27.50;;;;;;;3.51;81.37;102175.87;1706260;82;21082;-83
2022/11/28 10:42:33;;;;;;;52.45;28.27;;;;;;;3.49;81.30;102178.72;1679921;83;21046;-83
2022/11/28 10:45:14;;;;;;;49.05;26.37;;;;;;;3.53;81.47;102182.09;1701138;82;21052;-83
2022/11/28 10:48:21;;;;;;;47.53;26.45;;;;;;;3.61;81.45;102180.97;1698696;82;21807;-83
2022/11/28 10:51:22;;;;;;;41.98;25.08;;;;;;;3.58;81.27;102172.91;1713360;82;21081;-83
2022/11/28 10:54:21;;;;;;;52.80;27.60;;;;;;;3.59;81.26;102175.15;1712454;82;21553;-82
2022/11/28 10:56:59;;;;;;;46.25;27.37;;;;;;;3.58;81.28;102178.13;1713525;82;21092;-84
2022/11/28 10:59:31;;;;;;;47.13;27.10;;;;;;;3.60;81.41;102177.84;1707932;83;21690;-84
2022/11/28 11:01:59;;;;;;;48.42;27.52;;;;;;;3.66;81.44;102178.33;1701683;83;23041;-84
2022/11/28 11:04:26;;;;;;;48.78;28.80;;;;;;;3.73;81.41;102173.17;1705695;83;21056;-84
2022/11/28 11:07:15;;;;;;;46.95;27.50;;;;;;;3.77;81.27;102179.52;1710089;83;21071;-84
2022/11/28 11:09:43;;;;;;;52.30;27.90;;;;;;;3.83;81.32;102178.30;1719765;82;21098;-84
2022/11/28 11:12:23;;;;;;;48.25;26.90;;;;;;;3.99;81.57;102178.14;1713112;83;21513;-84
2022/11/28 11:14:50;;;;;;;43.45;26.68;;;;;;;4.14;81.47;102177.96;1717644;82;21979;-84
2022/11/28 11:17:36;;;;;;;45.67;26.52;;;;;;;4.23;81.28;102177.75;1715869;83;21639;-84
2022/11/28 11:20:08;;;;;;;45.98;27.93;;;;;;;4.34;81.28;102185.95;1714954;83;21612;-84
2022/11/28 11:22:35;;;;;;;52.38;30.17;;;;;;;4.40;81.09;102186.39;1713008;82;21112;-84
2022/11/28 11:25:13;;;;;;;58.15;33.02;;;;;;;4.41;80.71;102185.61;1714112;83;21604;-84
2022/11/28 11:27:50;;;;;;;54.93;33.28;;;;;;;4.39;80.68;102188.51;1713956;83;21764;-84
2022/11/28 11:30:24;;;;;;;46.77;29.70;;;;;;;4.43;80.75;102190.91;1713335;82;21023;-84
2022/11/28 11:32:50;;;;;;;47.43;29.18;;;;;;;4.40;80.50;102187.70;1718834;82;21060;-84
2022/11/28 11:35:23;;;;;;;38.67;24.57;;;;;;;4.29;80.21;102189.91;1716503;82;21079;-85
2022/11/28 11:37:49;;;;;;;35.58;22.42;;;;;;;4.22;80.09;102186.34;1719489;82;21150;-86
2022/11/28 11:40:27;;;;;;;40.78;25.90;;;;;;;4.21;80.21;102182.84;1688251;83;21808;-84
2022/11/28 11:42:59;;;;;;;44.85;28.45;;;;;;;4.24;80.10;102189.97;1717358;82;21107;-85